« Back
NWS Peachtree City, Ga » Text Product » CSG Terminal Aerodrome Forecast


Printer-friendly Version
Current Version              Previous Versions:   1  2  3  4  5  6  7  8  9  

Terminal Aerodrome Forecast

116
FTUS42 KFFC 301700 RRB
TAFCSG
TAF
KCSG 301742Z 3018/3118 22007KT P6SM VCSH SCT035 OVC060
      TEMPO 3021/3101 6SM -TSRA BR BKN025CB
     FM310900 00000KT 6SM BR FEW035 BKN100
     FM311400 21003KT P6SM SCT025=



USA.gov is the U.S. government's official web portal to all federal, state and local government web resources and services.